createdAt,value
2018-03-19T00:02:23.373Z,-1.44
2018-03-19T00:04:51.063Z,-1.45
2018-03-19T00:07:18.727Z,-1.44
2018-03-19T00:09:46.372Z,-1.50
2018-03-19T00:12:14.235Z,-1.50
2018-03-19T00:14:41.846Z,-1.49
2018-03-19T00:17:09.423Z,-1.52
2018-03-19T00:19:37.228Z,-1.54
2018-03-19T00:22:04.816Z,-1.55
2018-03-19T00:24:32.506Z,-1.52
2018-03-19T00:27:00.429Z,-1.53
2018-03-19T00:29:28.215Z,-1.55
2018-03-19T00:31:55.920Z,-1.55
2018-03-19T00:34:23.549Z,-1.55
2018-03-19T00:36:51.366Z,-1.58
2018-03-19T00:39:18.972Z,-1.59
2018-03-19T00:41:46.588Z,-1.60
2018-03-19T00:44:14.254Z,-1.66
2018-03-19T00:46:41.925Z,-1.67
2018-03-19T00:49:09.569Z,-1.67
2018-03-19T00:51:37.329Z,-1.71
2018-03-19T00:54:04.922Z,-1.72
2018-03-19T00:56:32.518Z,-1.70
2018-03-19T00:59:00.147Z,-1.70
2018-03-19T01:01:27.821Z,-1.73
2018-03-19T01:03:55.776Z,-1.72
2018-03-19T01:06:23.392Z,-1.77
2018-03-19T01:08:50.962Z,-1.76
2018-03-19T01:11:18.615Z,-1.76
2018-03-19T01:13:46.436Z,-1.77
2018-03-19T01:16:14.082Z,-1.82
2018-03-19T01:18:41.968Z,-1.84
2018-03-19T01:21:09.555Z,-1.85
2018-03-19T01:23:37.132Z,-1.85
2018-03-19T01:26:04.740Z,-1.85
2018-03-19T01:28:32.545Z,-1.87
2018-03-19T01:31:00.166Z,-1.88
2018-03-19T01:33:27.764Z,-1.88
2018-03-19T01:35:55.332Z,-1.88
2018-03-19T01:38:22.959Z,-1.97
2018-03-19T01:40:50.530Z,-1.98
2018-03-19T01:43:18.130Z,-2.00
2018-03-19T01:45:45.746Z,-2.09
2018-03-19T01:48:13.307Z,-2.08
2018-03-19T01:50:40.876Z,-2.05
2018-03-19T01:53:08.478Z,-2.13
2018-03-19T01:55:36.184Z,-2.10
2018-03-19T01:58:03.797Z,-2.10
2018-03-19T02:00:31.367Z,-2.16
2018-03-19T02:03:06.683Z,-2.12
2018-03-19T02:05:34.240Z,-2.12
2018-03-19T02:08:01.845Z,-2.15
2018-03-19T02:10:29.549Z,-2.17
2018-03-19T02:12:57.350Z,-2.18
2018-03-19T02:15:25.033Z,-2.23
2018-03-19T02:17:52.899Z,-2.21
2018-03-19T02:20:20.500Z,-2.17
2018-03-19T02:22:48.168Z,-2.17
2018-03-19T02:25:15.804Z,-2.18
2018-03-19T02:27:43.414Z,-2.19
2018-03-19T02:30:11.109Z,-2.19
2018-03-19T02:32:38.883Z,-2.21
2018-03-19T02:35:06.562Z,-2.24
2018-03-19T02:37:34.229Z,-2.27
2018-03-19T02:40:01.931Z,-2.29
2018-03-19T02:42:29.489Z,-2.33
2018-03-19T02:44:57.437Z,-2.38
2018-03-19T02:47:25.146Z,-2.39
2018-03-19T02:49:52.718Z,-2.40
2018-03-19T02:52:20.350Z,-2.42
2018-03-19T02:54:47.998Z,-2.38
2018-03-19T02:57:15.573Z,-2.41
2018-03-19T02:59:43.276Z,-2.42
2018-03-19T03:02:11.016Z,-2.45
2018-03-19T03:04:38.714Z,-2.48
2018-03-19T03:07:06.452Z,-2.52
2018-03-19T03:09:34.139Z,-2.55
2018-03-19T03:12:01.723Z,-2.57
2018-03-19T03:14:29.479Z,-2.56
2018-03-19T03:16:57.189Z,-2.55
2018-03-19T03:19:25.174Z,-2.57
2018-03-19T03:21:52.863Z,-2.60
2018-03-19T03:24:20.551Z,-2.64
2018-03-19T03:26:48.298Z,-2.72
2018-03-19T03:29:16.002Z,-2.75
2018-03-19T03:31:43.592Z,-2.75
2018-03-19T03:34:11.211Z,-2.74
2018-03-19T03:36:38.886Z,-2.71
2018-03-19T03:39:06.542Z,-2.79
2018-03-19T03:41:34.158Z,-2.77
2018-03-19T03:44:01.743Z,-2.80
2018-03-19T03:46:29.474Z,-2.79
2018-03-19T03:48:57.086Z,-2.80
2018-03-19T03:51:24.795Z,-2.80
2018-03-19T03:53:52.424Z,-2.81
2018-03-19T03:56:20.316Z,-2.87
2018-03-19T03:58:48.043Z,-2.85
2018-03-19T04:01:15.632Z,-2.90
2018-03-19T04:03:43.319Z,-2.88
2018-03-19T04:06:11.018Z,-2.87
2018-03-19T04:08:38.665Z,-2.87
2018-03-19T04:11:06.593Z,-2.90
2018-03-19T04:13:34.144Z,-2.94
2018-03-19T04:16:01.846Z,-2.93
2018-03-19T04:18:29.439Z,-2.96
2018-03-19T04:20:57.349Z,-2.98
2018-03-19T04:23:25.269Z,-2.97
2018-03-19T04:25:52.946Z,-2.99
2018-03-19T04:28:20.661Z,-3.05
2018-03-19T04:30:48.294Z,-3.08
2018-03-19T04:33:15.870Z,-3.04
2018-03-19T04:35:43.490Z,-3.08
2018-03-19T04:38:11.103Z,-3.09
2018-03-19T04:40:38.947Z,-3.08
2018-03-19T04:43:06.571Z,-3.08
2018-03-19T04:45:34.451Z,-3.02
2018-03-19T04:48:02.056Z,-3.09
2018-03-19T04:50:29.687Z,-3.11
2018-03-19T04:52:57.414Z,-3.15
2018-03-19T04:55:25.002Z,-3.15
2018-03-19T04:57:52.590Z,-3.12
2018-03-19T05:00:20.259Z,-3.18
2018-03-19T05:02:47.989Z,-3.23
2018-03-19T05:05:15.573Z,-3.24
2018-03-19T05:07:43.234Z,-3.25
2018-03-19T05:10:10.878Z,-3.23
2018-03-19T05:12:38.441Z,-3.25
2018-03-19T05:15:06.320Z,-3.28
2018-03-19T05:17:33.932Z,-3.30
2018-03-19T05:20:01.533Z,-3.27
2018-03-19T05:22:29.204Z,-3.28
2018-03-19T05:24:56.832Z,-3.26
2018-03-19T05:27:24.744Z,-3.27
2018-03-19T05:29:52.355Z,-3.33
2018-03-19T05:32:20.377Z,-3.33
2018-03-19T05:34:47.998Z,-3.38
2018-03-19T05:37:15.675Z,-3.33
2018-03-19T05:39:43.311Z,-3.36
2018-03-19T05:42:10.915Z,-3.44
2018-03-19T05:44:38.508Z,-3.45
2018-03-19T05:47:06.204Z,-3.45
2018-03-19T05:49:34.024Z,-3.50
2018-03-19T05:52:01.709Z,-3.47
2018-03-19T05:54:29.441Z,-3.47
2018-03-19T05:56:57.103Z,-3.47
2018-03-19T05:59:24.843Z,-3.44
2018-03-19T06:01:52.440Z,-3.49
2018-03-19T06:04:20.152Z,-3.46
2018-03-19T06:06:47.736Z,-3.41
2018-03-19T06:09:15.388Z,-3.45
2018-03-19T06:11:43.034Z,-3.40
2018-03-19T06:14:10.773Z,-3.38
2018-03-19T06:16:38.610Z,-3.39
2018-03-19T06:19:06.251Z,-3.39
2018-03-19T06:21:34.144Z,-3.37
2018-03-19T06:24:01.702Z,-3.39
2018-03-19T06:26:29.346Z,-3.33
2018-03-19T06:28:56.976Z,-3.31
2018-03-19T06:31:24.592Z,-3.27
2018-03-19T06:33:52.166Z,-3.22
2018-03-19T06:36:19.812Z,-3.19
2018-03-19T06:38:47.721Z,-3.14
2018-03-19T06:41:15.303Z,-3.07
2018-03-19T06:43:43.161Z,-2.98
2018-03-19T06:46:10.746Z,-2.91
2018-03-19T06:48:38.355Z,-2.88
2018-03-19T06:51:05.921Z,-2.79
2018-03-19T06:53:33.613Z,-2.72
2018-03-19T06:56:01.270Z,-2.66
2018-03-19T06:58:28.828Z,-2.62
2018-03-19T07:00:56.502Z,-2.55
2018-03-19T07:03:24.209Z,-2.49
2018-03-19T07:05:51.866Z,-2.42
2018-03-19T07:08:19.485Z,-2.33
2018-03-19T07:10:47.100Z,-2.28
2018-03-19T07:13:15.168Z,-2.21
2018-03-19T07:15:42.911Z,-2.17
2018-03-19T07:18:10.541Z,-2.14
2018-03-19T07:20:38.178Z,-2.09
2018-03-19T07:23:05.952Z,-2.03
2018-03-19T07:25:33.865Z,-2.01
2018-03-19T07:28:01.473Z,-1.93
2018-03-19T07:30:29.190Z,-1.85
2018-03-19T07:32:56.766Z,-1.76
2018-03-19T07:35:25.126Z,-1.66
2018-03-19T07:37:53.211Z,-1.59
2018-03-19T07:40:21.016Z,-1.54
2018-03-19T07:42:48.652Z,-1.50
2018-03-19T07:45:16.576Z,-1.44
2018-03-19T07:47:44.265Z,-1.39
2018-03-19T07:50:11.926Z,-1.35
2018-03-19T07:52:39.670Z,-1.33
2018-03-19T07:55:07.505Z,-1.20
2018-03-19T07:57:35.180Z,-1.05
2018-03-19T08:00:02.871Z,-1.07
2018-03-19T08:02:30.749Z,-1.04
2018-03-19T08:04:58.330Z,-0.90
2018-03-19T08:07:25.953Z,-0.78
2018-03-19T08:09:53.620Z,-0.69
2018-03-19T08:12:21.501Z,-0.61
2018-03-19T08:14:49.114Z,-0.57
2018-03-19T08:17:16.791Z,-0.53
2018-03-19T08:19:44.409Z,-0.50
2018-03-19T08:22:12.062Z,-0.47
2018-03-19T08:24:39.796Z,-0.39
2018-03-19T08:27:08.448Z,-0.28
2018-03-19T08:29:36.173Z,-0.22
2018-03-19T08:32:04.018Z,-0.10
2018-03-19T08:34:31.676Z,-0.02
2018-03-19T08:36:59.280Z,0.08
2018-03-19T08:39:27.062Z,0.21
2018-03-19T08:41:54.829Z,0.34
2018-03-19T08:44:22.720Z,0.43
2018-03-19T08:46:50.323Z,0.46
2018-03-19T08:49:18.074Z,0.55
2018-03-19T08:51:45.885Z,0.58
2018-03-19T08:54:13.817Z,0.67
2018-03-19T08:56:41.453Z,0.75
2018-03-19T08:59:09.048Z,0.86
2018-03-19T09:01:36.639Z,0.91
2018-03-19T09:04:04.301Z,0.91
2018-03-19T09:06:31.916Z,0.88
2018-03-19T09:08:59.837Z,0.91
2018-03-19T09:11:27.730Z,0.99
2018-03-19T09:13:55.355Z,1.06
2018-03-19T09:16:22.941Z,1.23
2018-03-19T09:18:50.673Z,1.40
2018-03-19T09:21:18.253Z,1.58
2018-03-19T09:23:45.821Z,1.63
2018-03-19T09:26:13.473Z,1.63
2018-03-19T09:28:41.148Z,1.76
2018-03-19T09:31:08.858Z,1.81
2018-03-19T09:33:36.637Z,2.00
2018-03-19T09:36:04.253Z,2.03
2018-03-19T09:38:31.838Z,1.99
2018-03-19T09:40:59.528Z,2.05
2018-03-19T09:43:27.207Z,2.20
2018-03-19T09:45:54.772Z,2.13
2018-03-19T09:48:22.416Z,2.21
2018-03-19T09:50:50.016Z,2.26
2018-03-19T09:53:17.608Z,2.31
2018-03-19T09:55:45.405Z,2.40
2018-03-19T09:58:13.001Z,2.38
2018-03-19T10:00:40.701Z,2.46
2018-03-19T10:03:08.320Z,2.51
2018-03-19T10:05:36.150Z,2.71
2018-03-19T10:08:03.763Z,2.90
2018-03-19T10:10:31.451Z,2.94
2018-03-19T10:12:59.111Z,3.05
2018-03-19T10:15:26.732Z,3.00
2018-03-19T10:17:54.318Z,3.14
2018-03-19T10:20:21.946Z,3.32
2018-03-19T10:22:49.650Z,3.49
2018-03-19T10:25:17.733Z,3.50
2018-03-19T10:27:45.329Z,3.65
2018-03-19T10:30:13.155Z,3.66
2018-03-19T10:32:40.812Z,3.66
2018-03-19T10:35:08.721Z,3.75
2018-03-19T10:37:36.315Z,3.90
2018-03-19T10:40:03.977Z,4.12
2018-03-19T10:42:31.712Z,4.19
2018-03-19T10:44:59.440Z,4.49
2018-03-19T10:47:27.043Z,4.57
2018-03-19T10:49:54.861Z,4.88
2018-03-19T10:52:22.483Z,5.08
2018-03-19T10:54:50.177Z,5.27
2018-03-19T10:57:17.809Z,5.59
2018-03-19T10:59:45.511Z,5.65
2018-03-19T11:02:16.055Z,5.84
2018-03-19T11:04:49.474Z,6.07
2018-03-19T11:07:22.568Z,6.34
2018-03-19T11:09:50.187Z,6.20
2018-03-19T11:12:17.815Z,6.15
2018-03-19T11:14:45.458Z,6.13
2018-03-19T11:17:13.081Z,6.14
2018-03-19T11:19:40.673Z,6.20
2018-03-19T11:22:08.328Z,6.25
2018-03-19T11:24:36.014Z,6.32
2018-03-19T11:27:03.587Z,6.49
2018-03-19T11:29:31.241Z,6.71
2018-03-19T11:31:58.829Z,7.04
2018-03-19T11:34:26.710Z,7.29
2018-03-19T11:36:54.424Z,7.42
2018-03-19T11:39:22.062Z,7.05
2018-03-19T11:41:49.691Z,7.15
2018-03-19T11:44:17.269Z,7.04
2018-03-19T11:46:44.944Z,7.01
2018-03-19T11:49:12.590Z,7.21
2018-03-19T11:51:40.935Z,7.29
2018-03-19T11:54:08.740Z,7.40
2018-03-19T11:56:36.477Z,7.58
2018-03-19T11:59:04.080Z,7.47
2018-03-19T12:01:31.683Z,7.67
2018-03-19T12:03:59.435Z,7.85
2018-03-19T12:06:27.254Z,8.06
2018-03-19T12:08:54.839Z,8.41
2018-03-19T12:11:22.477Z,8.66
2018-03-19T12:13:50.056Z,8.93
2018-03-19T12:16:17.759Z,8.83
2018-03-19T12:18:45.375Z,9.03
2018-03-19T12:21:13.023Z,9.08
2018-03-19T12:23:40.737Z,8.70
2018-03-19T12:26:08.441Z,8.76
2018-03-19T12:28:36.018Z,8.65
2018-03-19T12:31:03.663Z,8.84
2018-03-19T12:33:31.262Z,8.85
2018-03-19T12:35:58.886Z,8.45
2018-03-19T12:38:26.664Z,8.58
2018-03-19T12:40:54.290Z,8.31
2018-03-19T12:43:21.881Z,8.50
2018-03-19T12:45:49.874Z,8.73
2018-03-19T12:48:17.519Z,8.96
2018-03-19T12:50:45.485Z,9.21
2018-03-19T12:53:13.139Z,9.07
2018-03-19T12:55:40.823Z,8.82
2018-03-19T12:58:08.427Z,9.00
2018-03-19T13:00:36.069Z,9.38
2018-03-19T13:03:03.745Z,9.43
2018-03-19T13:05:31.644Z,9.47
2018-03-19T13:07:59.220Z,9.45
2018-03-19T13:10:26.958Z,9.46
2018-03-19T13:12:54.573Z,9.46
2018-03-19T13:15:22.496Z,9.53
2018-03-19T13:17:50.407Z,9.23
2018-03-19T13:20:18.047Z,9.43
2018-03-19T13:22:45.928Z,9.14
2018-03-19T13:25:13.537Z,9.44
2018-03-19T13:27:41.096Z,9.27
2018-03-19T13:30:08.980Z,9.58
2018-03-19T13:32:36.625Z,9.74
2018-03-19T13:35:04.205Z,9.46
2018-03-19T13:37:31.819Z,9.59
2018-03-19T13:39:59.448Z,9.87
2018-03-19T13:42:27.295Z,10.21
2018-03-19T13:44:54.945Z,10.34
2018-03-19T13:47:22.556Z,10.36
2018-03-19T13:49:50.253Z,10.61
2018-03-19T13:52:17.896Z,10.63
2018-03-19T13:54:45.481Z,10.85
2018-03-19T13:57:13.084Z,10.95
2018-03-19T13:59:40.984Z,10.52
2018-03-19T14:02:08.907Z,10.66
2018-03-19T14:04:36.496Z,10.14
2018-03-19T14:07:04.184Z,10.17
2018-03-19T14:09:31.785Z,10.23
2018-03-19T14:11:59.617Z,10.41
2018-03-19T14:14:27.630Z,10.38
2018-03-19T14:16:55.624Z,10.63
2018-03-19T14:19:23.233Z,10.65
2018-03-19T14:21:50.966Z,10.89
2018-03-19T14:24:18.891Z,10.80
2018-03-19T14:26:46.552Z,10.66
2018-03-19T14:29:14.121Z,10.54
2018-03-19T14:31:42.081Z,10.38
2018-03-19T14:34:09.811Z,10.20
2018-03-19T14:36:37.401Z,10.25
2018-03-19T14:39:05.056Z,10.24
2018-03-19T14:41:32.801Z,10.41
2018-03-19T14:44:00.396Z,10.44
2018-03-19T14:46:27.969Z,10.62
2018-03-19T14:48:55.851Z,10.64
2018-03-19T14:51:23.489Z,10.58
2018-03-19T14:53:51.175Z,10.43
2018-03-19T14:56:19.013Z,10.49
2018-03-19T14:58:46.648Z,10.25
2018-03-19T15:01:14.235Z,9.97
2018-03-19T15:03:41.829Z,9.65
2018-03-19T15:06:09.451Z,9.76
2018-03-19T15:08:37.041Z,9.77
2018-03-19T15:11:04.656Z,9.48
2018-03-19T15:13:32.249Z,9.53
2018-03-19T15:15:59.906Z,9.64
2018-03-19T15:18:27.537Z,9.82
2018-03-19T15:20:55.134Z,9.81
2018-03-19T15:23:22.776Z,9.58
2018-03-19T15:25:50.679Z,9.43
2018-03-19T15:28:18.332Z,9.15
2018-03-19T15:30:45.952Z,9.19
2018-03-19T15:33:13.621Z,9.20
2018-03-19T15:35:41.206Z,9.09
2018-03-19T15:38:08.770Z,8.74
2018-03-19T15:40:36.407Z,8.66
2018-03-19T15:43:04.233Z,8.53
2018-03-19T15:45:31.815Z,8.50
2018-03-19T15:47:59.431Z,8.40
2018-03-19T15:50:27.047Z,8.27
2018-03-19T15:52:54.854Z,8.17
2018-03-19T15:55:22.588Z,7.99
2018-03-19T15:57:50.192Z,7.75
2018-03-19T16:00:18.069Z,7.59
2018-03-19T16:02:51.341Z,7.46
2018-03-19T16:05:18.925Z,7.15
2018-03-19T16:07:46.548Z,6.96
2018-03-19T16:10:14.225Z,6.84
2018-03-19T16:12:41.900Z,6.78
2018-03-19T16:15:09.534Z,6.67
2018-03-19T16:17:37.132Z,6.53
2018-03-19T16:20:04.764Z,6.32
2018-03-19T16:22:32.396Z,6.22
2018-03-19T16:25:00.080Z,6.07
2018-03-19T16:27:27.739Z,5.97
2018-03-19T16:29:55.295Z,5.88
2018-03-19T16:32:23.271Z,5.82
2018-03-19T16:34:50.822Z,5.72
2018-03-19T16:37:18.550Z,5.64
2018-03-19T16:39:46.117Z,5.57
2018-03-19T16:42:13.752Z,5.40
2018-03-19T16:44:41.723Z,5.37
2018-03-19T16:47:09.317Z,5.32
2018-03-19T16:49:36.916Z,5.26
2018-03-19T16:52:04.566Z,5.23
2018-03-19T16:54:32.113Z,5.18
2018-03-19T16:57:00.129Z,5.15
2018-03-19T16:59:28.029Z,5.14
2018-03-19T17:01:55.681Z,5.04
2018-03-19T17:04:23.346Z,4.97
2018-03-19T17:06:51.201Z,4.94
2018-03-19T17:09:18.820Z,4.92
2018-03-19T17:11:46.493Z,4.79
2018-03-19T17:14:14.257Z,4.80
2018-03-19T17:16:41.955Z,4.76
2018-03-19T17:19:09.644Z,4.68
2018-03-19T17:21:37.251Z,4.63
2018-03-19T17:24:04.848Z,4.54
2018-03-19T17:26:32.551Z,4.50
2018-03-19T17:29:00.159Z,4.40
2018-03-19T17:31:27.823Z,4.30
2018-03-19T17:33:55.404Z,4.26
2018-03-19T17:39:15.627Z,4.13
2018-03-19T17:41:43.307Z,3.92
2018-03-19T17:44:10.894Z,3.81
2018-03-19T17:46:38.476Z,3.70
2018-03-19T17:49:06.996Z,3.56
2018-03-19T17:51:34.675Z,3.43
2018-03-19T17:54:02.309Z,3.32
2018-03-19T17:56:29.925Z,3.19
2018-03-19T17:58:57.482Z,3.00
2018-03-19T18:01:25.080Z,2.85
2018-03-19T18:03:52.724Z,2.77
2018-03-19T18:06:20.306Z,2.66
2018-03-19T18:08:47.860Z,2.59
2018-03-19T18:11:15.522Z,2.54
2018-03-19T18:13:43.131Z,2.43
2018-03-19T18:16:10.776Z,2.38
2018-03-19T18:18:38.568Z,2.38
2018-03-19T18:21:06.157Z,2.33
2018-03-19T18:23:34.032Z,2.27
2018-03-19T18:26:01.679Z,2.13
2018-03-19T18:28:29.293Z,2.05
2018-03-19T18:30:56.938Z,2.06
2018-03-19T18:33:24.610Z,2.01
2018-03-19T18:35:52.296Z,2.00
2018-03-19T18:38:19.888Z,1.96
2018-03-19T18:40:47.591Z,1.94
2018-03-19T18:43:15.551Z,1.90
2018-03-19T18:45:43.467Z,1.86
2018-03-19T18:48:11.351Z,1.86
2018-03-19T18:50:39.698Z,1.86
2018-03-19T18:53:07.437Z,1.80
2018-03-19T18:55:35.098Z,1.78
2018-03-19T18:58:03.327Z,1.75
2018-03-19T19:00:30.982Z,1.70
2018-03-19T19:02:58.640Z,1.71
2018-03-19T19:05:26.288Z,1.70
2018-03-19T19:07:53.923Z,1.69
2018-03-19T19:10:21.611Z,1.61
2018-03-19T19:13:05.695Z,1.61
2018-03-19T19:15:33.367Z,1.55
2018-03-19T19:18:00.966Z,1.52
2018-03-19T19:20:28.546Z,1.50
2018-03-19T19:22:56.252Z,1.48
2018-03-19T19:25:23.831Z,1.45
2018-03-19T19:27:51.531Z,1.40
2018-03-19T19:30:19.394Z,1.37
2018-03-19T19:32:46.984Z,1.34
2018-03-19T19:35:14.617Z,1.30
2018-03-19T19:37:42.201Z,1.25
2018-03-19T19:40:10.255Z,1.19
2018-03-19T19:42:37.929Z,1.14
2018-03-19T19:45:05.594Z,1.12
2018-03-19T19:47:33.270Z,1.09
2018-03-19T19:50:00.910Z,1.05
2018-03-19T19:52:28.600Z,0.98
2018-03-19T19:54:57.072Z,0.90
2018-03-19T19:57:24.620Z,0.86
2018-03-19T19:59:52.214Z,0.88
2018-03-19T20:02:19.844Z,0.86
2018-03-19T20:04:47.485Z,0.85
2018-03-19T20:07:15.460Z,0.85
2018-03-19T20:09:43.197Z,0.83
2018-03-19T20:12:10.778Z,0.83
2018-03-19T20:14:38.384Z,0.80
2018-03-19T20:17:09.586Z,0.78
2018-03-19T20:19:40.497Z,0.78
2018-03-19T20:22:08.388Z,0.75
2018-03-19T20:24:36.029Z,0.74
2018-03-19T20:27:03.613Z,0.70
2018-03-19T20:29:31.206Z,0.67
2018-03-19T20:31:58.833Z,0.64
2018-03-19T20:34:26.446Z,0.61
2018-03-19T20:36:54.014Z,0.60
2018-03-19T20:39:21.657Z,0.57
2018-03-19T20:41:49.450Z,0.54
2018-03-19T20:44:17.075Z,0.50
2018-03-19T20:46:44.779Z,0.47
2018-03-19T20:49:12.378Z,0.42
2018-03-19T20:51:40.057Z,0.37
2018-03-19T20:54:07.651Z,0.37
2018-03-19T20:56:35.295Z,0.32
2018-03-19T20:59:02.911Z,0.33
2018-03-19T21:01:30.492Z,0.30
2018-03-19T21:03:58.038Z,0.31
2018-03-19T21:06:25.683Z,0.30
2018-03-19T21:08:53.523Z,0.30
2018-03-19T21:11:22.272Z,0.29
2018-03-19T21:13:49.864Z,0.28
2018-03-19T21:16:17.456Z,0.26
2018-03-19T21:18:45.088Z,0.26
2018-03-19T21:21:12.686Z,0.21
2018-03-19T21:23:40.278Z,0.20
2018-03-19T21:26:07.933Z,0.21
2018-03-19T21:28:35.600Z,0.15
2018-03-19T21:31:03.171Z,0.19
2018-03-19T21:33:32.839Z,0.12
2018-03-19T21:36:00.474Z,0.12
2018-03-19T21:38:28.355Z,0.15
2018-03-19T21:40:56.004Z,0.17
2018-03-19T21:43:23.630Z,0.21
2018-03-19T21:45:51.338Z,0.25
2018-03-19T21:48:19.084Z,0.27
2018-03-19T21:50:46.672Z,0.29
2018-03-19T21:53:14.589Z,0.32
2018-03-19T21:55:42.477Z,0.34
2018-03-19T21:58:10.037Z,0.35
2018-03-19T22:00:37.696Z,0.36
2018-03-19T22:03:05.322Z,0.41
2018-03-19T22:05:33.000Z,0.46
2018-03-19T22:08:00.635Z,0.52
2018-03-19T22:10:28.426Z,0.55
2018-03-19T22:12:56.243Z,0.59
2018-03-19T22:15:23.857Z,0.62
2018-03-19T22:17:51.821Z,0.65
2018-03-19T22:20:19.681Z,0.67
2018-03-19T22:22:47.291Z,0.70
2018-03-19T22:25:14.993Z,0.72
2018-03-19T22:27:42.889Z,0.73
2018-03-19T22:30:10.460Z,0.76
2018-03-19T22:32:38.143Z,0.81
2018-03-19T22:35:05.874Z,0.84
2018-03-19T22:37:33.482Z,0.86
2018-03-19T22:40:01.200Z,0.87
2018-03-19T22:42:28.841Z,0.89
2018-03-19T22:44:56.576Z,0.88
2018-03-19T22:47:24.243Z,0.87
2018-03-19T22:49:51.893Z,0.89
2018-03-19T22:52:19.568Z,0.90
2018-03-19T22:54:47.552Z,0.91
2018-03-19T22:57:15.152Z,0.93
2018-03-19T22:59:42.755Z,0.92
2018-03-19T23:02:10.757Z,0.92
2018-03-19T23:04:50.366Z,0.93
2018-03-19T23:07:18.116Z,0.93
2018-03-19T23:09:45.790Z,0.92
2018-03-19T23:12:13.650Z,0.93
2018-03-19T23:14:41.285Z,0.94
2018-03-19T23:17:08.867Z,0.93
2018-03-19T23:19:36.888Z,0.94
2018-03-19T23:22:04.596Z,0.95
2018-03-19T23:24:32.262Z,0.98
2018-03-19T23:27:00.388Z,0.99
2018-03-19T23:29:28.423Z,1.00
2018-03-19T23:31:56.512Z,1.02
2018-03-19T23:34:24.610Z,1.03
2018-03-19T23:36:52.495Z,1.05
2018-03-19T23:39:20.576Z,1.07
2018-03-19T23:41:48.214Z,1.09
2018-03-19T23:44:15.806Z,1.12
2018-03-19T23:46:43.531Z,1.11
2018-03-19T23:49:11.202Z,1.09
2018-03-19T23:51:38.850Z,1.12
2018-03-19T23:54:06.435Z,1.14
2018-03-19T23:56:34.046Z,1.15
2018-03-19T23:59:01.687Z,1.19
